createdAt,value
2023-02-22T00:00:36.740Z,101.00
2023-02-22T00:01:19.428Z,96.33
2023-02-22T00:01:51.654Z,91.00
2023-02-22T00:02:29.158Z,88.67
2023-02-22T00:03:00.921Z,86.00
2023-02-22T00:03:32.821Z,84.33
2023-02-22T00:04:06.839Z,82.00
2023-02-22T00:04:42.431Z,78.33
2023-02-22T00:05:16.917Z,76.67
2023-02-22T00:05:48.645Z,77.33
2023-02-22T00:06:25.114Z,78.67
2023-02-22T00:07:01.299Z,80.00
2023-02-22T00:07:33.797Z,81.00
2023-02-22T00:08:09.383Z,81.67
2023-02-22T00:08:41.097Z,82.00
2023-02-22T00:09:13.839Z,82.00
2023-02-22T00:09:45.633Z,82.00
2023-02-22T00:10:20.457Z,82.00
2023-02-22T00:10:52.152Z,83.00
2023-02-22T00:11:23.855Z,83.00
2023-02-22T00:11:55.533Z,83.67
2023-02-22T00:12:29.318Z,82.00
2023-02-22T00:13:00.996Z,79.33
2023-02-22T00:13:32.661Z,77.00
2023-02-22T00:14:04.529Z,75.00
2023-02-22T00:14:36.211Z,73.00
2023-02-22T00:15:08.984Z,71.00
2023-02-22T00:15:41.558Z,71.00
2023-02-22T00:16:21.973Z,71.00
2023-02-22T00:16:56.291Z,71.00
2023-02-22T00:17:30.516Z,71.00
2023-02-22T00:18:04.717Z,70.67
2023-02-22T00:18:37.898Z,69.33
2023-02-22T00:19:10.612Z,68.00
2023-02-22T00:19:42.286Z,67.67
2023-02-22T00:20:18.751Z,68.00
2023-02-22T00:20:50.537Z,69.00
2023-02-22T00:21:22.775Z,69.00
2023-02-22T00:21:54.520Z,69.00
2023-02-22T00:22:26.269Z,69.00
2023-02-22T00:22:57.999Z,69.00
2023-02-22T00:23:31.960Z,68.33
2023-02-22T00:24:22.827Z,67.33
2023-02-22T00:24:55.435Z,65.33
2023-02-22T00:25:27.101Z,63.67
2023-02-22T00:26:01.193Z,63.00
2023-02-22T00:26:33.938Z,62.67
2023-02-22T00:27:05.635Z,61.33
2023-02-22T00:27:37.382Z,60.00
2023-02-22T00:28:09.053Z,60.00
2023-02-22T00:28:42.498Z,60.00
2023-02-22T00:29:14.255Z,60.67
2023-02-22T00:29:47.273Z,61.00
2023-02-22T00:30:26.757Z,61.67
2023-02-22T00:30:59.982Z,62.00
2023-02-22T00:31:31.779Z,62.67
2023-02-22T00:32:03.719Z,63.00
2023-02-22T00:32:35.920Z,63.67
2023-02-22T00:33:07.665Z,64.67
2023-02-22T00:33:40.583Z,65.00
2023-02-22T00:34:14.046Z,65.67
2023-02-22T00:34:45.806Z,66.00
2023-02-22T00:35:20.351Z,66.33
2023-02-22T00:35:52.228Z,67.00
2023-02-22T00:36:23.927Z,67.00
2023-02-22T00:36:55.647Z,67.00
2023-02-22T00:37:31.863Z,67.00
2023-02-22T00:38:04.394Z,67.00
2023-02-22T00:38:36.174Z,66.33
2023-02-22T00:39:09.941Z,65.67
2023-02-22T00:39:41.601Z,64.67
2023-02-22T00:40:18.129Z,63.67
2023-02-22T00:40:49.867Z,62.67
2023-02-22T00:41:21.617Z,61.67
2023-02-22T00:41:53.402Z,61.00
2023-02-22T00:42:25.237Z,60.33
2023-02-22T00:43:02.471Z,60.00
2023-02-22T00:43:34.968Z,60.00
2023-02-22T00:44:06.652Z,60.00
2023-02-22T00:44:38.739Z,60.00
2023-02-22T00:45:10.446Z,60.00
2023-02-22T00:45:42.417Z,59.67
2023-02-22T00:46:15.170Z,59.00
2023-02-22T00:46:46.938Z,58.33
2023-02-22T00:47:18.812Z,58.00
2023-02-22T00:47:51.512Z,58.00
2023-02-22T00:48:23.402Z,58.00
2023-02-22T00:48:55.126Z,58.00
2023-02-22T00:49:26.829Z,59.00
2023-02-22T00:49:58.778Z,59.00
2023-02-22T00:50:32.172Z,59.00
2023-02-22T00:51:04.232Z,59.00
2023-02-22T00:51:35.981Z,59.00
2023-02-22T00:52:09.149Z,59.00
2023-02-22T00:52:40.840Z,59.00
2023-02-22T00:53:12.585Z,59.00
2023-02-22T00:53:44.891Z,59.00
2023-02-22T00:54:20.097Z,59.00
2023-02-22T00:54:51.794Z,59.00
2023-02-22T00:55:27.854Z,59.00
2023-02-22T00:55:59.581Z,59.00
2023-02-22T00:56:34.500Z,59.00
2023-02-22T00:57:06.274Z,59.00
2023-02-22T00:57:38.310Z,59.00
2023-02-22T00:58:10.080Z,58.00
2023-02-22T00:58:41.752Z,58.00
2023-02-22T00:59:13.425Z,58.00
2023-02-22T00:59:45.144Z,58.00
2023-02-22T01:00:45.742Z,57.67
2023-02-22T01:01:17.657Z,57.00
2023-02-22T01:01:49.653Z,57.00
2023-02-22T01:02:21.364Z,57.00
2023-02-22T01:02:54.239Z,57.00
2023-02-22T01:03:25.977Z,57.00
2023-02-22T01:03:57.911Z,56.00
2023-02-22T01:04:29.880Z,55.67
2023-02-22T01:05:01.638Z,55.00
2023-02-22T01:05:33.715Z,54.33
2023-02-22T01:06:05.803Z,54.00
2023-02-22T01:06:37.729Z,54.33
2023-02-22T01:07:09.634Z,54.33
2023-02-22T01:07:41.404Z,54.00
2023-02-22T01:08:15.679Z,53.33
2023-02-22T01:08:48.898Z,52.33
2023-02-22T01:09:21.660Z,51.67
2023-02-22T01:09:53.726Z,50.67
2023-02-22T01:10:28.295Z,49.67
2023-02-22T01:11:01.007Z,48.67
2023-02-22T01:11:32.724Z,48.00
2023-02-22T01:12:04.752Z,47.33
2023-02-22T01:12:36.897Z,47.00
2023-02-22T01:13:12.311Z,46.00
2023-02-22T01:13:47.449Z,46.00
2023-02-22T01:14:21.148Z,46.00
2023-02-22T01:14:57.003Z,46.00
2023-02-22T01:15:30.848Z,46.00
2023-02-22T01:16:03.304Z,46.00
2023-02-22T01:16:35.522Z,46.00
2023-02-22T01:17:07.208Z,46.00
2023-02-22T01:17:40.237Z,46.00
2023-02-22T01:18:12.975Z,46.00
2023-02-22T01:18:44.743Z,46.00
2023-02-22T01:19:17.079Z,46.00
2023-02-22T01:19:48.844Z,46.00
2023-02-22T01:20:26.149Z,46.00
2023-02-22T01:20:57.870Z,46.00
2023-02-22T01:21:29.667Z,46.00
2023-02-22T01:22:01.427Z,46.00
2023-02-22T01:22:33.390Z,46.00
2023-02-22T01:23:08.148Z,46.33
2023-02-22T01:23:39.916Z,46.67
2023-02-22T01:24:16.370Z,46.33
2023-02-22T01:24:49.951Z,47.00
2023-02-22T01:25:24.990Z,48.00
2023-02-22T01:25:57.279Z,49.00
2023-02-22T01:26:28.984Z,50.00
2023-02-22T01:27:02.581Z,50.00
2023-02-22T01:27:38.740Z,50.00
2023-02-22T01:28:10.577Z,50.00
2023-02-22T01:28:42.255Z,50.00
2023-02-22T01:29:15.817Z,50.00
2023-02-22T01:29:50.175Z,50.00
2023-02-22T01:30:25.796Z,50.00
2023-02-22T01:30:58.055Z,50.00
2023-02-22T01:31:29.972Z,50.00
2023-02-22T01:32:01.825Z,50.00
2023-02-22T01:32:33.792Z,50.00
2023-02-22T01:33:07.583Z,50.00
2023-02-22T01:33:41.426Z,49.00
2023-02-22T01:34:13.175Z,49.00
2023-02-22T01:34:47.224Z,48.67
2023-02-22T01:35:24.872Z,48.00
2023-02-22T01:35:56.681Z,48.00
2023-02-22T01:36:28.330Z,48.00
2023-02-22T01:37:01.848Z,47.33
2023-02-22T01:37:33.525Z,47.00
2023-02-22T01:38:05.207Z,47.00
2023-02-22T01:38:38.193Z,47.00
2023-02-22T01:39:12.753Z,47.00
2023-02-22T01:39:44.561Z,46.67
2023-02-22T01:40:26.489Z,47.00
2023-02-22T01:40:58.177Z,47.00
2023-02-22T01:41:29.842Z,47.00
2023-02-22T01:42:01.820Z,47.00
2023-02-22T01:42:33.900Z,47.00
2023-02-22T01:43:16.726Z,47.00
2023-02-22T01:43:48.570Z,46.00
2023-02-22T01:44:31.096Z,45.67
2023-02-22T01:45:30.847Z,45.00
2023-02-22T01:46:05.742Z,44.00
2023-02-22T01:46:37.469Z,44.00
2023-02-22T01:47:09.216Z,43.33
2023-02-22T01:47:41.405Z,43.00
2023-02-22T01:48:16.928Z,43.00
2023-02-22T01:49:03.111Z,43.00
2023-02-22T01:49:48.149Z,43.00
2023-02-22T01:50:20.041Z,43.67
2023-02-22T01:51:13.082Z,44.33
2023-02-22T01:51:50.638Z,45.00
2023-02-22T01:52:22.888Z,45.67
2023-02-22T01:52:55.467Z,46.00
2023-02-22T01:53:34.885Z,46.00
2023-02-22T01:54:18.400Z,46.00
2023-02-22T01:54:55.822Z,46.00
2023-02-22T01:55:28.652Z,46.00
2023-02-22T01:56:01.572Z,46.00
2023-02-22T01:56:37.791Z,46.00
2023-02-22T01:57:22.115Z,46.00
2023-02-22T01:57:54.184Z,47.00
2023-02-22T01:58:30.430Z,47.00
2023-02-22T01:59:10.006Z,47.00
2023-02-22T01:59:46.928Z,47.33
2023-02-22T02:00:21.490Z,48.00
2023-02-22T02:00:53.579Z,48.00
2023-02-22T02:01:26.537Z,48.00
2023-02-22T02:01:58.319Z,48.00
2023-02-22T02:02:30.029Z,49.00
2023-02-22T02:03:18.239Z,49.00
2023-02-22T02:03:53.011Z,50.00
2023-02-22T02:04:26.198Z,50.33
2023-02-22T02:04:59.455Z,51.00
2023-02-22T02:05:34.354Z,51.00
2023-02-22T02:06:12.442Z,51.00
2023-02-22T02:06:45.687Z,51.00
2023-02-22T02:07:21.518Z,51.00
2023-02-22T02:07:54.153Z,51.00
2023-02-22T02:08:37.004Z,51.00
2023-02-22T02:09:50.028Z,51.00
2023-02-22T02:10:24.348Z,51.00
2023-02-22T02:10:58.121Z,51.00
2023-02-22T02:11:31.232Z,51.00
2023-02-22T02:12:06.511Z,51.00
2023-02-22T02:12:38.222Z,51.00
2023-02-22T02:13:10.728Z,50.33
2023-02-22T02:13:42.534Z,50.00
2023-02-22T02:14:15.305Z,50.00
2023-02-22T02:14:47.008Z,50.00
2023-02-22T02:15:31.189Z,49.67
2023-02-22T02:16:03.041Z,49.00
2023-02-22T02:16:50.696Z,49.00
2023-02-22T02:17:23.727Z,49.00
2023-02-22T02:18:05.540Z,49.00
2023-02-22T02:18:37.340Z,49.00
2023-02-22T02:19:46.741Z,49.00
2023-02-22T02:20:28.401Z,49.00
2023-02-22T02:21:28.915Z,48.67
2023-02-22T02:22:19.261Z,48.00
2023-02-22T02:23:17.006Z,48.00
2023-02-22T02:24:12.965Z,48.00
2023-02-22T02:25:18.147Z,48.00
2023-02-22T02:26:31.525Z,48.00
2023-02-22T02:27:13.341Z,49.00
2023-02-22T02:28:22.904Z,49.33
2023-02-22T02:29:00.471Z,50.00
2023-02-22T02:29:34.915Z,50.00
2023-02-22T02:30:24.641Z,50.00
2023-02-22T02:31:15.367Z,49.00
2023-02-22T02:32:12.167Z,48.00
2023-02-22T02:33:18.527Z,48.00
2023-02-22T02:34:07.670Z,48.00
2023-02-22T02:34:39.286Z,48.00
2023-02-22T02:35:21.610Z,48.00
2023-02-22T02:36:12.820Z,48.00
2023-02-22T02:36:59.102Z,48.00
2023-02-22T02:37:49.232Z,48.00
2023-02-22T02:38:44.189Z,48.00
2023-02-22T02:39:35.833Z,48.00
2023-02-22T02:40:17.951Z,48.00
2023-02-22T02:40:57.076Z,48.00
2023-02-22T02:41:45.455Z,48.67
2023-02-22T02:42:22.671Z,49.33
2023-02-22T02:42:58.324Z,50.00
2023-02-22T02:43:37.769Z,50.67
2023-02-22T02:44:17.027Z,51.00
2023-02-22T02:45:11.644Z,51.33
2023-02-22T02:45:55.202Z,52.00
2023-02-22T02:46:34.902Z,52.00
2023-02-22T02:47:14.766Z,52.00
2023-02-22T02:47:53.848Z,52.00
2023-02-22T02:48:28.990Z,52.00
2023-02-22T02:49:15.581Z,52.00
2023-02-22T02:50:13.469Z,52.00
2023-02-22T02:50:48.748Z,52.00
2023-02-22T02:51:24.844Z,51.00
2023-02-22T02:51:58.633Z,51.00
2023-02-22T02:52:34.824Z,51.00
2023-02-22T02:53:09.063Z,50.67
2023-02-22T02:53:46.478Z,50.00
2023-02-22T02:54:19.742Z,50.00
2023-02-22T02:54:53.619Z,50.00
2023-02-22T02:55:25.711Z,50.00
2023-02-22T02:55:59.788Z,49.67
2023-02-22T02:56:32.073Z,49.00
2023-02-22T02:57:04.632Z,49.00
2023-02-22T02:57:36.335Z,49.00
2023-02-22T02:58:08.955Z,49.00
2023-02-22T02:58:51.009Z,49.00
2023-02-22T02:59:34.827Z,49.00
2023-02-22T03:00:24.067Z,49.00
2023-02-22T03:01:01.502Z,49.00
2023-02-22T03:01:45.284Z,49.00
2023-02-22T03:02:35.501Z,49.00
2023-02-22T03:03:37.496Z,49.00
2023-02-22T03:04:22.959Z,50.00
2023-02-22T03:05:15.905Z,50.00
2023-02-22T03:06:13.383Z,50.00
2023-02-22T03:07:22.412Z,51.00
2023-02-22T03:08:03.121Z,51.00
2023-02-22T03:08:40.092Z,51.00
2023-02-22T03:09:37.654Z,51.00
2023-02-22T03:10:37.968Z,51.00
2023-02-22T03:11:23.509Z,52.00
2023-02-22T03:12:32.166Z,53.00
2023-02-22T03:13:16.160Z,54.00
2023-02-22T03:14:15.805Z,54.00
2023-02-22T03:15:02.905Z,54.67
2023-02-22T03:15:43.348Z,55.00
2023-02-22T03:16:52.200Z,55.00
2023-02-22T03:17:37.183Z,56.00
2023-02-22T03:18:33.219Z,56.00
2023-02-22T03:19:29.782Z,56.33
2023-02-22T03:20:15.020Z,57.00
2023-02-22T03:20:55.574Z,57.00
2023-02-22T03:21:55.736Z,57.00
2023-02-22T03:22:44.191Z,57.67
2023-02-22T03:24:08.202Z,58.33
2023-02-22T03:24:53.165Z,59.33
2023-02-22T03:25:34.170Z,60.00
2023-02-22T03:26:14.685Z,60.00
2023-02-22T03:27:02.900Z,60.33
2023-02-22T03:27:43.565Z,60.00
2023-02-22T03:28:19.006Z,60.33
2023-02-22T03:28:54.211Z,61.00
2023-02-22T03:29:35.547Z,61.00
2023-02-22T03:30:13.808Z,61.00
2023-02-22T03:30:52.882Z,61.00
2023-02-22T03:31:37.268Z,61.00
2023-02-22T03:32:15.875Z,61.00
2023-02-22T03:32:54.340Z,61.00
2023-02-22T03:33:52.728Z,61.67
2023-02-22T03:34:32.733Z,62.00
2023-02-22T03:35:11.100Z,62.00
2023-02-22T03:35:57.024Z,62.00
2023-02-22T03:36:39.226Z,62.00
2023-02-22T03:37:26.298Z,62.00
2023-02-22T03:38:04.728Z,61.00
2023-02-22T03:38:38.641Z,61.00
2023-02-22T03:39:16.828Z,61.00
2023-02-22T03:39:53.039Z,61.00
2023-02-22T03:40:33.285Z,61.00
2023-02-22T03:41:08.983Z,61.00
2023-02-22T03:41:41.272Z,62.00
2023-02-22T03:42:21.066Z,62.00
2023-02-22T03:42:59.403Z,62.00
2023-02-22T03:43:48.824Z,62.00
2023-02-22T03:44:27.181Z,62.33
2023-02-22T03:45:04.712Z,63.67
2023-02-22T03:45:43.507Z,64.33
2023-02-22T03:46:19.524Z,65.00
2023-02-22T03:46:56.883Z,66.00
2023-02-22T03:47:37.459Z,66.00
2023-02-22T03:48:16.979Z,66.00
2023-02-22T03:49:00.543Z,65.67
2023-02-22T03:49:36.392Z,65.00
2023-02-22T03:50:12.733Z,65.00
2023-02-22T03:50:44.579Z,65.00
2023-02-22T03:51:18.929Z,65.00
2023-02-22T03:51:51.410Z,66.00
2023-02-22T03:52:23.969Z,66.00
2023-02-22T03:52:59.119Z,66.00
2023-02-22T03:53:34.442Z,66.00
2023-02-22T03:54:07.164Z,67.00
2023-02-22T03:54:40.411Z,67.00
2023-02-22T03:55:13.917Z,67.00
2023-02-22T03:55:51.676Z,68.00
2023-02-22T03:56:35.744Z,68.00
2023-02-22T03:57:19.184Z,68.00
2023-02-22T03:57:58.762Z,67.67
2023-02-22T03:58:34.685Z,67.00
2023-02-22T03:59:10.052Z,66.00
2023-02-22T03:59:42.231Z,64.67
2023-02-22T04:00:20.232Z,63.67
2023-02-22T04:00:53.464Z,63.00
2023-02-22T04:01:25.236Z,63.00
2023-02-22T04:01:57.383Z,63.00
2023-02-22T04:02:29.108Z,63.00
2023-02-22T04:03:02.070Z,63.67
2023-02-22T04:03:33.781Z,65.67
2023-02-22T04:04:06.025Z,67.00
2023-02-22T04:04:38.048Z,68.00
2023-02-22T04:05:09.852Z,69.00
2023-02-22T04:05:41.572Z,71.00
2023-02-22T04:06:13.355Z,72.00
2023-02-22T04:06:45.485Z,73.33
2023-02-22T04:07:17.487Z,75.33
2023-02-22T04:07:49.630Z,79.00
2023-02-22T04:08:21.398Z,82.67
2023-02-22T04:08:53.107Z,88.33
2023-02-22T04:09:24.887Z,91.33
2023-02-22T04:09:56.574Z,92.00
2023-02-22T04:10:28.321Z,92.67
2023-02-22T04:11:01.444Z,93.00
2023-02-22T04:11:33.174Z,93.33
2023-02-22T04:12:05.664Z,93.00
2023-02-22T04:12:37.844Z,92.67
2023-02-22T04:13:10.756Z,91.67
2023-02-22T04:13:42.423Z,90.33
2023-02-22T04:14:14.248Z,90.00
2023-02-22T04:14:45.922Z,89.00
2023-02-22T04:15:22.023Z,88.67
2023-02-22T04:15:54.138Z,88.00
2023-02-22T04:16:25.878Z,88.00
2023-02-22T04:16:57.586Z,87.33
2023-02-22T04:17:29.289Z,87.00
2023-02-22T04:18:01.022Z,86.00
2023-02-22T04:18:32.726Z,86.00
2023-02-22T04:19:04.438Z,86.00
2023-02-22T04:19:36.359Z,85.67
2023-02-22T04:20:08.480Z,85.00
2023-02-22T04:20:40.131Z,85.00
2023-02-22T04:21:11.896Z,84.67
2023-02-22T04:21:43.593Z,84.00
2023-02-22T04:22:15.339Z,84.00
2023-02-22T04:22:47.494Z,84.00
2023-02-22T04:23:19.262Z,84.00
2023-02-22T04:23:51.351Z,84.00
2023-02-22T04:24:23.069Z,84.00
2023-02-22T04:24:54.852Z,84.00
2023-02-22T04:25:26.729Z,83.33
2023-02-22T04:25:58.453Z,83.00
2023-02-22T04:26:30.225Z,83.00
2023-02-22T04:27:02.000Z,84.00
2023-02-22T04:27:34.485Z,85.00
2023-02-22T04:28:06.252Z,87.33
2023-02-22T04:28:37.957Z,90.00
2023-02-22T04:29:09.730Z,93.33
2023-02-22T04:29:41.813Z,96.33
2023-02-22T04:30:13.700Z,102.33
2023-02-22T04:30:45.970Z,110.00
2023-02-22T04:31:18.343Z,119.00
2023-02-22T04:31:50.553Z,125.33
2023-02-22T04:32:22.383Z,137.33
2023-02-22T04:32:54.215Z,148.33
2023-02-22T04:33:25.962Z,142.33
2023-02-22T04:33:57.706Z,134.33
2023-02-22T04:34:29.491Z,132.00
2023-02-22T04:35:01.210Z,134.67
2023-02-22T04:35:35.413Z,136.33
2023-02-22T04:36:07.838Z,144.33
2023-02-22T04:36:42.378Z,154.00
2023-02-22T04:37:14.220Z,158.67
2023-02-22T04:37:45.922Z,152.33
2023-02-22T04:38:17.910Z,149.00
2023-02-22T04:38:49.600Z,151.67
2023-02-22T04:39:21.827Z,153.00
2023-02-22T04:39:53.539Z,153.00
2023-02-22T04:40:25.226Z,151.33
2023-02-22T04:40:56.993Z,151.00
2023-02-22T04:41:28.698Z,151.33
2023-02-22T04:42:00.592Z,151.67
2023-02-22T04:42:32.321Z,152.67
2023-02-22T04:43:04.046Z,154.00
2023-02-22T04:43:35.773Z,153.33
2023-02-22T04:44:07.845Z,153.67
2023-02-22T04:44:39.549Z,156.00
2023-02-22T04:45:11.412Z,161.67
2023-02-22T04:45:43.102Z,165.00
2023-02-22T04:46:14.925Z,167.33
2023-02-22T04:46:47.003Z,175.67
2023-02-22T04:47:18.874Z,175.67
2023-02-22T04:47:50.597Z,169.33
2023-02-22T04:48:22.280Z,164.00
2023-02-22T04:48:54.811Z,161.33
2023-02-22T04:49:26.576Z,160.67
2023-02-22T04:50:00.433Z,161.67
2023-02-22T04:50:32.180Z,164.67
2023-02-22T04:51:04.175Z,166.33
2023-02-22T04:51:36.935Z,166.33
2023-02-22T04:52:08.726Z,165.00
2023-02-22T04:52:40.821Z,163.33
2023-02-22T04:53:14.785Z,160.33
2023-02-22T04:53:47.047Z,137.67
2023-02-22T04:54:19.695Z,119.67
2023-02-22T04:54:51.562Z,114.00
2023-02-22T04:55:23.464Z,114.33
2023-02-22T04:55:55.648Z,113.00
2023-02-22T04:56:32.924Z,110.67
2023-02-22T04:57:04.782Z,111.00
2023-02-22T04:57:36.606Z,114.00
2023-02-22T04:58:09.597Z,115.33
2023-02-22T04:58:42.450Z,114.00
2023-02-22T04:59:14.399Z,115.67
2023-02-22T04:59:46.103Z,115.33
2023-02-22T05:00:21.870Z,114.67
2023-02-22T05:00:54.099Z,115.00
2023-02-22T05:01:25.828Z,111.33
2023-02-22T05:01:57.561Z,109.67
2023-02-22T05:02:29.248Z,110.67
2023-02-22T05:03:01.071Z,112.00
2023-02-22T05:03:32.769Z,113.67
2023-02-22T05:04:06.776Z,115.33
2023-02-22T05:04:39.003Z,116.67
2023-02-22T05:05:11.271Z,120.33
2023-02-22T05:05:43.978Z,140.33
2023-02-22T05:06:17.836Z,143.33
2023-02-22T05:06:49.626Z,139.67
2023-02-22T05:07:21.425Z,138.67
2023-02-22T05:07:53.377Z,137.33
2023-02-22T05:08:25.183Z,137.00
2023-02-22T05:08:56.987Z,136.67
2023-02-22T05:09:28.879Z,137.00
2023-02-22T05:10:03.019Z,137.00
2023-02-22T05:10:34.817Z,137.00
2023-02-22T05:11:06.710Z,137.00
2023-02-22T05:11:38.563Z,138.67
2023-02-22T05:12:10.237Z,144.33
2023-02-22T05:12:42.031Z,232.67
2023-02-22T05:13:13.748Z,328.67
2023-02-22T05:13:45.496Z,378.33
2023-02-22T05:14:17.202Z,353.00
2023-02-22T05:14:48.933Z,355.33
2023-02-22T05:15:23.118Z,356.67
2023-02-22T05:15:54.941Z,390.67
2023-02-22T05:16:26.781Z,397.00
2023-02-22T05:16:59.106Z,384.33
2023-02-22T05:17:30.857Z,377.33
2023-02-22T05:18:02.652Z,351.33
2023-02-22T05:18:34.461Z,340.00
2023-02-22T05:19:06.303Z,302.67
2023-02-22T05:19:38.214Z,266.00
2023-02-22T05:20:29.736Z,232.33
2023-02-22T05:21:01.495Z,347.33
2023-02-22T05:21:33.601Z,321.67
2023-02-22T05:22:05.765Z,271.67
2023-02-22T05:22:37.455Z,230.33
2023-02-22T05:23:09.232Z,204.67
2023-02-22T05:23:41.720Z,200.67
2023-02-22T05:24:13.392Z,208.00
2023-02-22T05:24:45.079Z,201.33
2023-02-22T05:25:16.774Z,198.00
2023-02-22T05:25:48.534Z,194.33
2023-02-22T05:26:20.250Z,201.67
2023-02-22T05:26:53.407Z,216.33
2023-02-22T05:27:25.464Z,222.33
2023-02-22T05:27:59.674Z,216.67
2023-02-22T05:28:32.413Z,207.67
2023-02-22T05:29:04.232Z,236.33
2023-02-22T05:29:38.640Z,306.33
2023-02-22T05:30:11.931Z,350.33
2023-02-22T05:30:43.846Z,421.00
2023-02-22T05:31:16.051Z,447.67
2023-02-22T05:31:48.113Z,442.67
2023-02-22T05:32:19.971Z,428.00
2023-02-22T05:32:52.576Z,409.00
2023-02-22T05:33:24.283Z,405.67
2023-02-22T05:33:55.998Z,423.67
2023-02-22T05:34:27.714Z,427.67
2023-02-22T05:34:59.434Z,393.33
2023-02-22T05:35:31.147Z,351.67
2023-02-22T05:36:02.935Z,331.67
2023-02-22T05:36:34.781Z,283.67
2023-02-22T05:37:06.455Z,258.67
2023-02-22T05:37:38.893Z,246.67
2023-02-22T05:38:15.123Z,235.67
2023-02-22T05:38:46.844Z,229.67
2023-02-22T05:39:18.570Z,227.00
2023-02-22T05:39:53.457Z,219.00
2023-02-22T05:40:27.868Z,228.33
2023-02-22T05:40:59.530Z,239.00
2023-02-22T05:41:31.319Z,248.67
2023-02-22T05:42:03.064Z,265.67
2023-02-22T05:42:37.504Z,269.00
2023-02-22T05:43:09.854Z,286.33
2023-02-22T05:43:41.845Z,299.33
2023-02-22T05:44:13.753Z,300.00
2023-02-22T05:44:45.637Z,300.00
2023-02-22T05:45:20.857Z,298.67
2023-02-22T05:45:52.614Z,303.67
2023-02-22T05:46:25.229Z,321.67
2023-02-22T05:46:57.078Z,328.00
2023-02-22T05:47:28.807Z,324.67
2023-02-22T05:48:01.049Z,315.00
2023-02-22T05:48:33.242Z,312.67
2023-02-22T05:49:05.438Z,312.00
2023-02-22T05:49:37.141Z,313.00
2023-02-22T05:50:09.960Z,312.33
2023-02-22T05:50:41.692Z,311.33
2023-02-22T05:51:13.551Z,322.67
2023-02-22T05:51:45.265Z,331.67
2023-02-22T05:52:17.025Z,326.67
2023-02-22T05:52:49.384Z,320.67
2023-02-22T05:53:21.102Z,304.00
2023-02-22T05:53:52.850Z,284.00
2023-02-22T05:54:24.542Z,281.67
2023-02-22T05:54:56.225Z,287.33
2023-02-22T05:55:28.114Z,290.00
2023-02-22T05:55:59.871Z,293.00
2023-02-22T05:56:31.680Z,295.67
2023-02-22T05:57:03.680Z,297.67
2023-02-22T05:57:35.640Z,297.67
2023-02-22T05:58:07.377Z,296.67
2023-02-22T05:58:39.078Z,290.67
2023-02-22T05:59:10.806Z,273.33
2023-02-22T05:59:43.154Z,268.67
2023-02-22T06:00:27.472Z,265.00
2023-02-22T06:01:00.731Z,265.67
2023-02-22T06:01:33.312Z,269.67
2023-02-22T06:02:05.101Z,273.67
2023-02-22T06:02:36.956Z,277.00
2023-02-22T06:03:12.560Z,281.33
2023-02-22T06:03:47.930Z,289.67
2023-02-22T06:04:20.233Z,295.00
2023-02-22T06:04:52.227Z,297.00
2023-02-22T06:05:24.435Z,297.00
2023-02-22T06:05:56.234Z,297.00
2023-02-22T06:06:27.957Z,297.00
2023-02-22T06:06:59.765Z,297.00
2023-02-22T06:07:31.502Z,297.00
2023-02-22T06:08:04.366Z,296.67
2023-02-22T06:08:36.606Z,296.00
2023-02-22T06:09:08.681Z,296.00
2023-02-22T06:09:40.937Z,296.00
2023-02-22T06:10:14.019Z,296.00
2023-02-22T06:10:45.810Z,296.00
2023-02-22T06:11:19.753Z,296.33
2023-02-22T06:11:54.517Z,300.33
2023-02-22T06:12:27.165Z,307.67
2023-02-22T06:13:00.308Z,319.00
2023-02-22T06:13:32.018Z,332.00
2023-02-22T06:14:03.765Z,342.00
2023-02-22T06:14:36.208Z,371.67
2023-02-22T06:15:08.040Z,399.67
2023-02-22T06:15:39.739Z,407.33
2023-02-22T06:16:11.513Z,411.00
2023-02-22T06:16:43.746Z,411.33
2023-02-22T06:17:19.295Z,413.67
2023-02-22T06:17:53.356Z,406.33
2023-02-22T06:18:26.816Z,399.33
2023-02-22T06:19:00.231Z,396.33
2023-02-22T06:19:32.176Z,396.33
2023-02-22T06:20:04.103Z,392.67
2023-02-22T06:20:35.877Z,392.67
2023-02-22T06:21:08.928Z,391.67
2023-02-22T06:21:42.137Z,390.67
2023-02-22T06:22:18.980Z,389.67
2023-02-22T06:22:52.942Z,389.67
2023-02-22T06:23:25.825Z,386.00
2023-02-22T06:23:57.489Z,391.00
2023-02-22T06:24:29.237Z,403.67
2023-02-22T06:25:03.722Z,405.00
2023-02-22T06:25:36.233Z,402.00
2023-02-22T06:26:07.972Z,400.33
2023-02-22T06:26:39.646Z,400.00
2023-02-22T06:27:11.635Z,401.00
2023-02-22T06:27:43.553Z,401.00
2023-02-22T06:28:15.870Z,403.00
2023-02-22T06:28:47.580Z,405.00
2023-02-22T06:29:19.291Z,405.00
2023-02-22T06:29:51.022Z,406.00
2023-02-22T06:30:25.196Z,403.00
2023-02-22T06:30:56.967Z,402.00
2023-02-22T06:31:28.679Z,401.67
2023-02-22T06:32:00.422Z,400.33
2023-02-22T06:32:32.329Z,399.67
2023-02-22T06:33:04.075Z,398.33
2023-02-22T06:33:35.732Z,397.00
2023-02-22T06:34:07.508Z,392.67
2023-02-22T06:34:41.035Z,384.00
2023-02-22T06:35:12.821Z,380.33
2023-02-22T06:35:45.332Z,379.67
2023-02-22T06:36:20.107Z,378.67
2023-02-22T06:36:51.873Z,378.00
2023-02-22T06:37:23.585Z,377.67
2023-02-22T06:37:55.260Z,377.67
2023-02-22T06:38:27.905Z,378.67
2023-02-22T06:38:59.728Z,381.00
2023-02-22T06:39:31.405Z,383.00
2023-02-22T06:40:05.693Z,386.00
2023-02-22T06:40:37.806Z,389.00
2023-02-22T06:41:10.017Z,391.00
2023-02-22T06:41:43.837Z,392.00
2023-02-22T06:42:15.806Z,392.00
2023-02-22T06:42:49.144Z,391.33
2023-02-22T06:43:21.951Z,390.67
2023-02-22T06:43:53.630Z,387.33
2023-02-22T06:44:25.330Z,382.33
2023-02-22T06:44:57.046Z,378.67
2023-02-22T06:45:28.880Z,373.00
2023-02-22T06:46:00.743Z,366.33
2023-02-22T06:46:32.927Z,361.33
2023-02-22T06:47:53.610Z,345.33
2023-02-22T06:48:25.417Z,339.00
2023-02-22T06:48:59.528Z,331.33
2023-02-22T06:49:31.194Z,321.33
2023-02-22T06:50:02.999Z,315.33
2023-02-22T06:50:35.935Z,321.33
2023-02-22T06:51:10.892Z,321.33
2023-02-22T06:51:43.374Z,320.67
2023-02-22T06:52:15.065Z,317.00
2023-02-22T06:52:47.987Z,323.67
2023-02-22T06:53:19.637Z,323.00
2023-02-22T06:53:51.479Z,324.00
2023-02-22T06:54:24.261Z,323.67
2023-02-22T06:54:55.993Z,332.00
2023-02-22T06:55:30.273Z,333.67
2023-02-22T06:56:02.502Z,334.67
2023-02-22T06:56:34.203Z,335.67
2023-02-22T06:57:05.909Z,336.00
2023-02-22T06:57:37.705Z,336.00
2023-02-22T06:58:09.613Z,336.67
2023-02-22T06:58:41.351Z,336.00
2023-02-22T06:59:13.197Z,335.00
2023-02-22T06:59:45.218Z,332.67
2023-02-22T07:00:23.390Z,327.00
2023-02-22T07:00:55.241Z,328.00
2023-02-22T07:01:26.943Z,330.00
2023-02-22T07:01:59.355Z,328.33
2023-02-22T07:02:31.047Z,323.00
2023-02-22T07:03:04.768Z,318.67
2023-02-22T07:03:36.866Z,315.67
2023-02-22T07:04:09.632Z,313.33
2023-02-22T07:04:43.532Z,310.67
2023-02-22T07:05:17.255Z,310.67
2023-02-22T07:05:48.961Z,312.67
2023-02-22T07:06:20.723Z,311.67
2023-02-22T07:06:52.394Z,312.67
2023-02-22T07:07:25.366Z,312.00
2023-02-22T07:08:05.429Z,311.00
2023-02-22T07:08:37.458Z,310.33
2023-02-22T07:09:09.174Z,307.33
2023-02-22T07:09:40.893Z,306.00
2023-02-22T07:10:27.771Z,305.00
2023-02-22T07:10:59.637Z,302.00
2023-02-22T07:11:31.568Z,299.67
2023-02-22T07:12:03.641Z,299.33
2023-02-22T07:12:35.863Z,297.67
2023-02-22T07:13:08.855Z,296.67
2023-02-22T07:13:41.583Z,298.00
2023-02-22T07:14:19.026Z,298.00
2023-02-22T07:14:54.481Z,296.33
2023-02-22T07:15:28.118Z,292.67
2023-02-22T07:16:00.919Z,285.67
2023-02-22T07:16:33.794Z,285.33
2023-02-22T07:17:05.547Z,285.67
2023-02-22T07:17:37.309Z,286.00
2023-02-22T07:18:09.210Z,286.00
2023-02-22T07:18:40.934Z,288.00
2023-02-22T07:19:12.587Z,288.00
2023-02-22T07:19:44.259Z,289.67
2023-02-22T07:20:16.906Z,291.00
2023-02-22T07:20:48.661Z,292.67
2023-02-22T07:21:20.456Z,327.67
2023-02-22T07:21:59.234Z,399.33
2023-02-22T07:22:31.125Z,405.67
2023-02-22T07:23:02.992Z,381.67
2023-02-22T07:23:35.145Z,360.00
2023-02-22T07:24:07.198Z,350.67
2023-02-22T07:24:40.793Z,348.00
2023-02-22T07:25:12.926Z,342.00
2023-02-22T07:25:44.803Z,339.67
2023-02-22T07:26:16.507Z,338.00
2023-02-22T07:26:48.234Z,333.00
2023-02-22T07:27:19.923Z,328.00